Flight Track Log - Related Links

Times and Time Zones

All times are in EDT time to prevent confusion due to time zone crossing. See the N510SR flight status page for this flight to view local times or setup timezone preferences in your user account.


Time Position Orientation Groundspeed Altitude Reporting Facility
EDT Latitude Longitude Course Direction KTS MPH feet Rate Location/Type
Wed 07:46:49 PM 40.8333 -74.1000 266° West 167 192 1,500  Level New York TRACON
Wed 07:47:43 PM 40.8167 -74.1667 252° West 213 245 1,600 850 Climbing New York TRACON
Wed 07:48:49 PM 40.7833 -74.2500 242° Southwest 243 280 3,200 2,333 Climbing New York TRACON
Wed 07:49:49 PM 40.7667 -74.3333 255° West 272 313 6,500 1,950 Climbing New York TRACON
Wed 07:50:49 PM 40.7500 -74.4333 258° West 279 321 7,100 300 Climbing New York TRACON
Wed 07:51:49 PM 40.7000 -74.5167 232° Southwest 278 320 7,100  Level New York TRACON
Wed 07:52:00 PM 40.7948 -74.4592 266° West  Level Estimated
Wed 07:53:00 PM 40.6544 -74.5910 231° Southwest  Level FlightAware Approximate
Wed 08:00:00 PM 40.5415 -75.1180 261° West  Level FlightAware Approximate
Wed 08:01:00 PM 40.5354 -75.1975 281° West  Level FlightAware Approximate
Wed 08:02:00 PM 40.5467 -75.2768 281° West  Level FlightAware Approximate
Wed 08:03:00 PM 40.5500 -75.3570 270° West  Level FlightAware Approximate
Wed 08:04:00 PM 40.5521 -75.4375 278° West  Level FlightAware Approximate
Wed 08:05:00 PM 40.5601 -75.5175 278° West  Level FlightAware Approximate
Wed 08:06:00 PM 40.5667 -75.5977 270° West  Level FlightAware Approximate
Wed 08:07:00 PM 40.5667 -75.6784 270° West  Level FlightAware Approximate
Wed 08:08:00 PM 40.5848 -75.6152 37° Northeast  Level FlightAware Approximate
Wed 08:09:00 PM 40.6108 -75.5462 75° East  Level FlightAware Approximate
Wed 08:10:00 PM 40.6345 -75.4722 62° Northeast  Level FlightAware Approximate
Wed 08:11:00 PM 40.6500 -75.4333 62° Northeast  Level FlightAware Approximate

Login

Don't have an account? Register now (free) for customized features, flight alerts, and more!